VRTM - Saison 11

Position Fahrer Laps Zeit Diff Fahrzeug Status Gesamt Bonuspunkte Strafpunkte
1 Florian Hasse 23 30:14.732 - Mercedes-AMG C63 DTM Beendet 40 0 0
2 Kai Ostwald 23 30:16.443 0:01.711 BMW M4 DTM 2015 Beendet 35 0 0
3 Stefan Ahlers 23 30:18.289 0:03.557 Mercedes-AMG C63 DTM Beendet 31 0 0
4 Markus Studer 23 30:20.576 0:05.844 Audi RS 5 DTM 2015 Beendet 28 0 0
5 Thorben Kexel 23 30:26.026 0:11.294 Mercedes-AMG C63 DTM Beendet 26 0 0
6 Jörg Spindler 23 30:44.405 0:29.673 Audi RS 5 DTM 2015 Beendet 24 0 0
7 Tom Ritter 23 30:54.085 0:39.353 Audi RS 5 DTM 2015 Beendet 22 0 0
8 André G. 23 30:58.266 0:43.534 BMW M4 DTM 2015 Beendet 20 0 0
9 Nils Herbstrieth 23 31:00.319 0:45.587 BMW M4 DTM 2015 Beendet 18 0 0
10 Roman Holzi 23 31:02.285 0:47.553 Audi RS 5 DTM 2015 Beendet 16 0 0
11 Franz Mayr 23 31:07.390 0:52.658 BMW M4 DTM 2015 Beendet 14 0 0
12 Max Ohliger 23 31:11.729 0:56.997 BMW M4 DTM 2015 Beendet 13 0 0
13 Marcel Wolf 23 31:20.839 1:06.107 Mercedes-AMG C63 DTM Beendet 12 0 0
14 Stefan Findeklee 23 31:29.857 1:15.125 BMW M4 DTM 2015 Beendet 11 0 0
15 Marc Copa 23 31:34.323 1:19.591 Mercedes-AMG C63 DTM Beendet 10 0 0
16 Andy Litzkendorf 22 - -1L Mercedes-AMG C63 DTM Beendet 9 0 0
17 Gil Ritter 22 - -1L Audi RS 5 DTM 2015 Beendet 8 0 0
18 Dietmar Scholz 22 - -1L BMW M4 DTM 2015 Beendet 7 0 0
19 Axel Dorner 13 - -10L Audi RS 5 DTM 2015 Beendet 0 0 0
20 Manuel Schmidt 5 - -18L BMW M4 DTM 2015 Beendet 0 0 0

Rennverlauf

Die schnellsten 5 pro Runde

Runde 1

Pos Rennpos Fahrer Zeit Diff
1 1 Florian Hasse 1:24.230 -
2 2 Markus Studer 1:25.739 0:01.509
3 3 Kai Ostwald 1:26.381 0:02.151
4 4 Stefan Ahlers 1:26.742 0:02.512
5 5 Thorben Kexel 1:27.833 0:03.603

Runde 2

Pos Rennpos Fahrer Zeit Diff
1 1 Florian Hasse 1:17.905 -
2 4 Stefan Ahlers 1:18.934 0:01.029
3 3 Kai Ostwald 1:19.026 0:01.121
4 2 Markus Studer 1:19.032 0:01.127
5 6 Franz Mayr 1:19.341 0:01.436

Runde 3

Pos Rennpos Fahrer Zeit Diff
1 1 Florian Hasse 1:18.025 -
2 2 Markus Studer 1:18.679 0:00.654
3 3 Kai Ostwald 1:18.725 0:00.700
4 4 Stefan Ahlers 1:18.952 0:00.927
5 5 Thorben Kexel 1:20.087 0:02.062

Runde 4

Pos Rennpos Fahrer Zeit Diff
1 3 Kai Ostwald 1:18.223 -
2 1 Florian Hasse 1:18.306 0:00.083
3 4 Stefan Ahlers 1:18.547 0:00.324
4 2 Markus Studer 1:18.717 0:00.494
5 5 Thorben Kexel 1:19.356 0:01.133

Runde 5

Pos Rennpos Fahrer Zeit Diff
1 1 Florian Hasse 1:18.138 -
2 2 Kai Ostwald 1:18.545 0:00.407
3 5 Thorben Kexel 1:18.841 0:00.703
4 8 Tom Ritter 1:19.153 0:01.015
5 6 Roman Holzi 1:19.204 0:01.066

Runde 6

Pos Rennpos Fahrer Zeit Diff
1 2 Kai Ostwald 1:17.994 -
2 1 Florian Hasse 1:18.297 0:00.303
3 7 Jörg Spindler 1:18.698 0:00.704
4 5 Thorben Kexel 1:18.820 0:00.826
5 14 Franz Mayr 1:19.230 0:01.236

Runde 7

Pos Rennpos Fahrer Zeit Diff
1 1 Florian Hasse 1:18.210 -
2 5 Thorben Kexel 1:18.440 0:00.230
3 2 Kai Ostwald 1:18.485 0:00.275
4 13 Franz Mayr 1:18.938 0:00.728
5 3 Stefan Ahlers 1:19.134 0:00.924

Runde 8

Pos Rennpos Fahrer Zeit Diff
1 1 Florian Hasse 1:18.216 -
2 4 Markus Studer 1:18.291 0:00.075
3 2 Kai Ostwald 1:18.423 0:00.207
4 3 Stefan Ahlers 1:18.549 0:00.333
5 5 Thorben Kexel 1:18.823 0:00.607

Runde 9

Pos Rennpos Fahrer Zeit Diff
1 1 Florian Hasse 1:18.123 -
2 4 Markus Studer 1:18.351 0:00.228
3 2 Kai Ostwald 1:18.411 0:00.288
4 5 Thorben Kexel 1:18.593 0:00.470
5 3 Stefan Ahlers 1:18.679 0:00.556

Runde 10

Pos Rennpos Fahrer Zeit Diff
1 1 Florian Hasse 1:18.062 -
2 4 Markus Studer 1:18.320 0:00.258
3 3 Stefan Ahlers 1:18.348 0:00.286
4 5 Thorben Kexel 1:18.475 0:00.413
5 2 Kai Ostwald 1:18.541 0:00.479

Runde 11

Pos Rennpos Fahrer Zeit Diff
1 1 Florian Hasse 1:18.042 -
2 5 Thorben Kexel 1:18.345 0:00.303
3 2 Kai Ostwald 1:18.390 0:00.348
4 10 Nils Herbstrieth 1:18.878 0:00.836
5 3 Stefan Ahlers 1:19.007 0:00.965

Runde 12

Pos Rennpos Fahrer Zeit Diff
1 3 Stefan Ahlers 1:18.060 -
2 4 Markus Studer 1:18.314 0:00.254
3 2 Kai Ostwald 1:18.597 0:00.537
4 1 Florian Hasse 1:18.668 0:00.608
5 10 Nils Herbstrieth 1:19.147 0:01.087

Runde 13

Pos Rennpos Fahrer Zeit Diff
1 1 Florian Hasse 1:17.820 -
2 2 Kai Ostwald 1:18.252 0:00.432
3 3 Stefan Ahlers 1:18.509 0:00.689
4 4 Markus Studer 1:18.620 0:00.800
5 5 Thorben Kexel 1:18.849 0:01.029

Runde 14

Pos Rennpos Fahrer Zeit Diff
1 1 Florian Hasse 1:18.027 -
2 4 Markus Studer 1:18.098 0:00.071
3 3 Stefan Ahlers 1:18.386 0:00.359
4 5 Thorben Kexel 1:18.512 0:00.485
5 2 Kai Ostwald 1:18.709 0:00.682

Runde 15

Pos Rennpos Fahrer Zeit Diff
1 5 Thorben Kexel 1:18.472 -
2 1 Kai Ostwald 1:18.538 0:00.066
3 3 Stefan Ahlers 1:18.591 0:00.119
4 4 Markus Studer 1:18.624 0:00.152
5 9 Nils Herbstrieth 1:18.935 0:00.463

Runde 16

Pos Rennpos Fahrer Zeit Diff
1 3 Stefan Ahlers 1:17.963 -
2 4 Markus Studer 1:18.025 0:00.062
3 2 Florian Hasse 1:18.183 0:00.220
4 1 Kai Ostwald 1:18.337 0:00.374
5 6 Jörg Spindler 1:19.362 0:01.399

Runde 17

Pos Rennpos Fahrer Zeit Diff
1 5 Thorben Kexel 1:18.189 -
2 2 Florian Hasse 1:18.376 0:00.187
3 3 Stefan Ahlers 1:18.414 0:00.225
4 1 Kai Ostwald 1:18.437 0:00.248
5 4 Markus Studer 1:18.445 0:00.256

Runde 18

Pos Rennpos Fahrer Zeit Diff
1 2 Florian Hasse 1:18.379 -
2 3 Stefan Ahlers 1:18.467 0:00.088
3 12 Franz Mayr 1:18.480 0:00.101
4 5 Thorben Kexel 1:18.508 0:00.129
5 4 Markus Studer 1:18.567 0:00.188

Runde 19

Pos Rennpos Fahrer Zeit Diff
1 2 Florian Hasse 1:17.632 -
2 1 Kai Ostwald 1:18.367 0:00.735
3 5 Thorben Kexel 1:18.447 0:00.815
4 12 Franz Mayr 1:18.777 0:01.145
5 3 Stefan Ahlers 1:18.941 0:01.309

Runde 20

Pos Rennpos Fahrer Zeit Diff
1 2 Florian Hasse 1:17.685 -
2 1 Kai Ostwald 1:18.898 0:01.213
3 3 Stefan Ahlers 1:18.961 0:01.276
4 4 Markus Studer 1:19.093 0:01.408
5 9 Roman Holzi 1:19.174 0:01.489

Runde 21

Pos Rennpos Fahrer Zeit Diff
1 3 Stefan Ahlers 1:18.572 -
2 5 Thorben Kexel 1:18.678 0:00.106
3 1 Florian Hasse 1:19.282 0:00.710
4 4 Markus Studer 1:19.535 0:00.963
5 6 Jörg Spindler 1:19.578 0:01.006

Runde 22

Pos Rennpos Fahrer Zeit Diff
1 1 Florian Hasse 1:18.494 -
2 3 Stefan Ahlers 1:18.700 0:00.206
3 5 Thorben Kexel 1:18.724 0:00.230
4 4 Markus Studer 1:19.175 0:00.681
5 6 Jörg Spindler 1:19.203 0:00.709

Runde 23

Pos Rennpos Fahrer Zeit Diff
1 1 Florian Hasse 1:18.367 -
2 5 Thorben Kexel 1:18.771 0:00.404
3 11 Franz Mayr 1:18.973 0:00.606
4 4 Markus Studer 1:19.009 0:00.642
5 2 Kai Ostwald 1:19.019 0:00.652

SERVER

0/24
VRL Gentlemen Drivers Cup (GDC) Trainingsserver
TrainingDaytona International Speedway - Road Course
0/103
virtualracing.org #1 GTMG1
TrainingSpa-Francorchamps
0/103
virtualracing.org #2 FNS
TrainingStockcar, Martinsville Speedway
0/103
virtualracing.org #3 FS
TrainingOschersleben Motorsport Park
0/103
virtualracing.org #4 LSM
TrainingLe Mans 24h
0/45
virtualracing.org #5 F1S
TrainingFormelDLM, 07. Spanien - Barcelona GP
0/45
virtualracing.org #6 TWS
TrainingVirtual Racing, VRTWS, 06. Suedafrika-Kyalami
0/103
virtualracing.org P5 ES
TrainingSebring International Raceway
0/32
virtualracing.org#4 GTC Training Standard
TrainingSachsenring - Grand Prix
0/30
virtualracing.org#5 GTC Training A
TrainingSachsenring - Grand Prix
0/33
virtualracing.org#6 GTC Training B
TrainingSachsenring - Grand Prix
0/33
virtualracing.org#7 GTC Training C
TrainingSachsenring - Grand Prix
0/32
virtualracing.org#11 FAC VIP Training
TrainingAutódromo Internacional do Algarve - GP
1/60
virtualracing.org#12 VRLN VR1 VR4H Training
TrainingNordschleife - VLN
0/70
virtualracing.org#13 VRLN VR3T Training
TrainingNordschleife - VLN
0/58
virtualracing.org#14 VRLN VR2GT VR5C Training
TrainingNordschleife - VLN
0/45
virtualracing.org#16 VRLNIV Lauf 3 Qualifikation Grid 2
TrainingNordschleife - VLN Qualifikation
0/60
virtualracing.org#17 VRLNIV Lauf 3 Qualifikation Grid 1
TrainingNordschleife - VLN Qualifikation
0/30
virtualracing.org#23 VRCO Training 1
TrainingAutódromo José Carlos Pace - Grand Prix
0/16
virtualracing.org#28 VR240 Test und Einstellfahrt
TrainingAspertsham - Hargassen
0/24
virtualracing.org#30 ALT Training
TrainingKyalami - Grand Prix Circuit 1961-87